createdAt,value
2016-05-29T00:00:07.448Z,18.3
2016-05-29T00:00:17.432Z,18.3
2016-05-29T00:00:27.432Z,18.3
2016-05-29T00:00:37.432Z,18.3
2016-05-29T00:00:47.435Z,18.3
2016-05-29T00:00:57.451Z,18.3
2016-05-29T00:01:07.295Z,18.3
2016-05-29T00:01:17.295Z,18.3
2016-05-29T00:01:27.451Z,18.3
2016-05-29T00:01:45.407Z,18.3
2016-05-29T00:01:50.173Z,18.2
2016-05-29T00:02:00.126Z,18.2
2016-05-29T00:02:10.141Z,18.3
2016-05-29T00:02:20.126Z,18.3
2016-05-29T00:02:30.126Z,18.3
2016-05-29T00:02:40.141Z,18.3
2016-05-29T00:02:50.143Z,18.3
2016-05-29T00:03:00.143Z,18.2
2016-05-29T00:03:09.987Z,18.3
2016-05-29T00:03:20.143Z,18.2
2016-05-29T00:03:30.143Z,18.3
2016-05-29T00:03:40.003Z,18.3
2016-05-29T00:03:50.146Z,18.3
2016-05-29T00:04:00.146Z,18.2
2016-05-29T00:04:10.146Z,18.3
2016-05-29T00:04:20.006Z,18.2
2016-05-29T00:04:30.162Z,18.2
2016-05-29T00:04:40.162Z,18.2
2016-05-29T00:04:50.165Z,18.2
2016-05-29T00:05:00.540Z,18.3
2016-05-29T00:05:11.227Z,18.3
2016-05-29T00:05:20.274Z,18.2
2016-05-29T00:05:30.462Z,18.2
2016-05-29T00:05:40.556Z,18.3
2016-05-29T00:05:50.324Z,18.3
2016-05-29T00:06:00.293Z,18.3
2016-05-29T00:06:11.371Z,18.2
2016-05-29T00:06:20.184Z,18.3
2016-05-29T00:06:30.199Z,18.2
2016-05-29T00:06:40.184Z,18.3
2016-05-29T00:06:50.201Z,18.2
2016-05-29T00:07:00.201Z,18.3
2016-05-29T00:07:10.201Z,18.3
2016-05-29T00:07:20.217Z,18.2
2016-05-29T00:07:30.201Z,18.2
2016-05-29T00:07:40.217Z,18.2
2016-05-29T00:07:50.220Z,18.2
2016-05-29T00:08:00.220Z,18.3
2016-05-29T00:08:10.064Z,18.3
2016-05-29T00:08:20.064Z,18.3
2016-05-29T00:08:30.220Z,18.2
2016-05-29T00:08:40.235Z,18.3
2016-05-29T00:08:50.223Z,18.3
2016-05-29T00:09:00.238Z,18.3
2016-05-29T00:09:10.238Z,18.2
2016-05-29T00:09:20.238Z,18.3
2016-05-29T00:09:30.238Z,18.2
2016-05-29T00:09:40.254Z,18.3
2016-05-29T00:09:50.256Z,18.3
2016-05-29T00:10:00.240Z,18.2
2016-05-29T00:10:10.256Z,18.3
2016-05-29T00:10:20.240Z,18.2
2016-05-29T00:10:30.256Z,18.1
2016-05-29T00:10:40.256Z,18.2
2016-05-29T00:10:50.259Z,18.2
2016-05-29T00:11:00.259Z,18.2
2016-05-29T00:11:10.275Z,18.2
2016-05-29T00:11:20.275Z,18.1
2016-05-29T00:11:30.259Z,18.3
2016-05-29T00:11:40.118Z,18.3
2016-05-29T00:11:50.277Z,18.2
2016-05-29T00:12:00.136Z,18.2
2016-05-29T00:12:10.277Z,18.2
2016-05-29T00:12:20.277Z,18.2
2016-05-29T00:12:30.292Z,18.1
2016-05-29T00:12:40.292Z,18.2
2016-05-29T00:12:50.312Z,18.2
2016-05-29T00:13:00.296Z,18.2
2016-05-29T00:13:10.296Z,18.2
2016-05-29T00:13:20.312Z,18.2
2016-05-29T00:13:30.296Z,18.2
2016-05-29T00:13:40.312Z,18.2
2016-05-29T00:13:50.314Z,18.2
2016-05-29T00:14:00.314Z,18.2
2016-05-29T00:14:10.314Z,18.2
2016-05-29T00:14:20.314Z,18.1
2016-05-29T00:14:30.314Z,18.2
2016-05-29T00:14:40.314Z,18.2
2016-05-29T00:14:50.332Z,18.2
2016-05-29T00:15:00.316Z,18.2
2016-05-29T00:15:10.175Z,18.1
2016-05-29T00:15:20.332Z,18.2
2016-05-29T00:15:30.332Z,18.2
2016-05-29T00:15:40.332Z,18.2
2016-05-29T00:15:50.335Z,18.2
2016-05-29T00:16:00.350Z,18.2
2016-05-29T00:16:10.350Z,18.2
2016-05-29T00:16:20.350Z,18.2
2016-05-29T00:16:30.366Z,18.1
2016-05-29T00:16:40.350Z,18.2
2016-05-29T00:16:50.369Z,18.2
2016-05-29T00:17:00.353Z,18.1
2016-05-29T00:17:10.369Z,18.2
2016-05-29T00:17:20.369Z,18.2
2016-05-29T00:17:30.369Z,18.2
2016-05-29T00:17:40.369Z,18.2
2016-05-29T00:17:50.372Z,18.2
2016-05-29T00:18:00.387Z,18.1
2016-05-29T00:18:10.372Z,18.2
2016-05-29T00:18:20.387Z,18.2
2016-05-29T00:18:30.387Z,18.2
2016-05-29T00:18:40.387Z,18.2
2016-05-29T00:18:50.390Z,18.2
2016-05-29T00:19:00.234Z,18.2
2016-05-29T00:19:10.390Z,18.2
2016-05-29T00:19:20.390Z,18.2
2016-05-29T00:19:30.250Z,18.2
2016-05-29T00:19:40.390Z,18.2
2016-05-29T00:19:50.408Z,18.2
2016-05-29T00:20:00.424Z,18.2
2016-05-29T00:20:10.408Z,18.2
2016-05-29T00:20:20.424Z,18.2
2016-05-29T00:20:30.939Z,18.2
2016-05-29T00:20:40.424Z,18.2
2016-05-29T00:20:50.552Z,18.1
2016-05-29T00:21:00.270Z,18.1
2016-05-29T00:21:10.286Z,18.2
2016-05-29T00:21:20.427Z,18.2
2016-05-29T00:21:30.427Z,18.2
2016-05-29T00:21:40.427Z,18.1
2016-05-29T00:21:50.445Z,18.3
2016-05-29T00:22:00.445Z,18.2
2016-05-29T00:22:10.445Z,18.2
2016-05-29T00:22:20.445Z,18.2
2016-05-29T00:22:30.445Z,18.2
2016-05-29T00:22:40.445Z,18.2
2016-05-29T00:22:50.463Z,18.1
2016-05-29T00:23:00.463Z,18.1
2016-05-29T00:23:10.463Z,18.2
2016-05-29T00:23:20.463Z,18.1
2016-05-29T00:23:30.463Z,18.1
2016-05-29T00:23:40.463Z,18.2
2016-05-29T00:23:50.466Z,18.1
2016-05-29T00:24:00.466Z,18.1
2016-05-29T00:24:10.482Z,18.1
2016-05-29T00:24:20.482Z,18.2
2016-05-29T00:24:30.482Z,18.2
2016-05-29T00:24:40.482Z,18.1
2016-05-29T00:24:50.485Z,18.2
2016-05-29T00:25:00.485Z,18.2
2016-05-29T00:25:10.485Z,18.1
2016-05-29T00:25:20.344Z,18.1
2016-05-29T00:25:30.485Z,18.2
2016-05-29T00:25:40.500Z,18.2
2016-05-29T00:25:50.502Z,18.1
2016-05-29T00:26:00.362Z,18.1
2016-05-29T00:26:10.502Z,18.1
2016-05-29T00:26:20.502Z,18.2
2016-05-29T00:26:30.502Z,18.1
2016-05-29T00:26:40.518Z,18.1
2016-05-29T00:26:50.521Z,18.2
2016-05-29T00:27:00.521Z,18.1
2016-05-29T00:27:10.521Z,18.1
2016-05-29T00:27:20.521Z,18.2
2016-05-29T00:27:30.521Z,18.2
2016-05-29T00:27:40.521Z,18.2
2016-05-29T00:27:50.538Z,18.1
2016-05-29T00:28:00.538Z,18.2
2016-05-29T00:28:10.538Z,18.1
2016-05-29T00:28:20.538Z,18.2
2016-05-29T00:28:30.538Z,18.2
2016-05-29T00:28:40.554Z,18.2
2016-05-29T00:28:50.541Z,18.1
2016-05-29T00:29:00.557Z,18.2
2016-05-29T00:29:10.541Z,18.1
2016-05-29T00:29:20.557Z,18.2
2016-05-29T00:29:30.557Z,18.2
2016-05-29T00:29:40.557Z,18.2
2016-05-29T00:29:50.576Z,18.2
2016-05-29T00:30:00.419Z,18.2
2016-05-29T00:30:10.576Z,18.2
2016-05-29T00:30:20.576Z,18.2
2016-05-29T00:30:30.419Z,18.2
2016-05-29T00:30:40.576Z,18.2
2016-05-29T00:30:50.594Z,18.2
2016-05-29T00:31:00.579Z,18.2
2016-05-29T00:31:10.579Z,18.1
2016-05-29T00:31:20.579Z,18.2
2016-05-29T00:31:30.594Z,18.2
2016-05-29T00:31:40.594Z,18.2
2016-05-29T00:31:50.596Z,18.1
2016-05-29T00:32:00.440Z,18.1
2016-05-29T00:32:10.612Z,18.1
2016-05-29T00:32:20.596Z,18.2
2016-05-29T00:32:30.612Z,18.2
2016-05-29T00:32:40.612Z,18.1
2016-05-29T00:32:50.615Z,18.2
2016-05-29T00:33:00.615Z,18
2016-05-29T00:33:10.615Z,18.2
2016-05-29T00:33:20.459Z,18.1
2016-05-29T00:33:30.615Z,18.2
2016-05-29T00:33:40.615Z,18.1
2016-05-29T00:33:50.634Z,18.2
2016-05-29T00:34:00.634Z,18.2
2016-05-29T00:34:10.634Z,18.2
2016-05-29T00:34:20.649Z,18.2
2016-05-29T00:34:30.634Z,18.2
2016-05-29T00:34:40.493Z,18.1
2016-05-29T00:34:50.637Z,18.2
2016-05-29T00:35:00.605Z,18.2
2016-05-29T00:35:10.668Z,18.2
2016-05-29T00:35:20.793Z,18.2
2016-05-29T00:35:30.824Z,18.2
2016-05-29T00:35:40.652Z,18.1
2016-05-29T00:35:50.670Z,18.2
2016-05-29T00:36:00.670Z,18.2
2016-05-29T00:36:10.670Z,18.2
2016-05-29T00:36:20.670Z,18.2
2016-05-29T00:36:30.670Z,18.1
2016-05-29T00:36:40.670Z,18.2
2016-05-29T00:36:50.673Z,18.2
2016-05-29T00:37:00.673Z,18.2
2016-05-29T00:37:10.673Z,18.2
2016-05-29T00:37:20.688Z,18.2
2016-05-29T00:37:30.688Z,18.2
2016-05-29T00:37:40.688Z,18.2
2016-05-29T00:37:50.690Z,18.2
2016-05-29T00:38:00.550Z,18.2
2016-05-29T00:38:10.690Z,18.2
2016-05-29T00:38:20.706Z,18.3
2016-05-29T00:38:30.706Z,18.3
2016-05-29T00:38:40.706Z,18.3
2016-05-29T00:38:50.709Z,18.2
2016-05-29T00:39:00.568Z,18.2
2016-05-29T00:39:10.709Z,18.2
2016-05-29T00:39:20.709Z,18.3
2016-05-29T00:39:30.709Z,18.3
2016-05-29T00:39:40.725Z,18.3
2016-05-29T00:39:50.728Z,18.3
2016-05-29T00:40:00.728Z,18.3
2016-05-29T00:40:10.728Z,18.3
2016-05-29T00:40:20.571Z,18.3
2016-05-29T00:40:30.728Z,18.3
2016-05-29T00:40:40.728Z,18.3
2016-05-29T00:40:50.731Z,18.3
2016-05-29T00:41:00.746Z,18.3
2016-05-29T00:41:10.590Z,18.3
2016-05-29T00:41:20.746Z,18.3
2016-05-29T00:41:30.746Z,18.3
2016-05-29T00:41:40.746Z,18.4
2016-05-29T00:41:50.748Z,18.4
2016-05-29T00:42:00.748Z,18.3
2016-05-29T00:42:10.623Z,18.3
2016-05-29T00:42:20.764Z,18.4
2016-05-29T00:42:30.780Z,18.3
2016-05-29T00:42:40.764Z,18.3
2016-05-29T00:42:50.767Z,18.4
2016-05-29T00:43:00.767Z,18.4
2016-05-29T00:43:10.626Z,18.3
2016-05-29T00:43:20.767Z,18.4
2016-05-29T00:43:30.783Z,18.4
2016-05-29T00:43:40.783Z,18.4
2016-05-29T00:43:50.786Z,18.4
2016-05-29T00:44:00.786Z,18.4
2016-05-29T00:44:10.645Z,18.4
2016-05-29T00:44:20.786Z,18.4
2016-05-29T00:44:30.786Z,18.4
2016-05-29T00:44:40.645Z,18.4
2016-05-29T00:44:50.803Z,18.3
2016-05-29T00:45:00.647Z,18.3
2016-05-29T00:45:10.803Z,18.3
2016-05-29T00:45:20.819Z,18.4
2016-05-29T00:45:30.803Z,18.4
2016-05-29T00:45:40.803Z,18.3
2016-05-29T00:45:50.822Z,18.2
2016-05-29T00:46:00.822Z,18.3
2016-05-29T00:46:10.822Z,18.4
2016-05-29T00:46:20.822Z,18.4
2016-05-29T00:46:30.822Z,18.4
2016-05-29T00:46:40.681Z,18.4
2016-05-29T00:46:50.840Z,18.3
2016-05-29T00:47:00.856Z,18.4
2016-05-29T00:47:10.840Z,18.4
2016-05-29T00:47:20.840Z,18.3
2016-05-29T00:47:30.840Z,18.4
2016-05-29T00:47:40.840Z,18.3
2016-05-29T00:47:50.842Z,18.3
2016-05-29T00:48:00.842Z,18.4
2016-05-29T00:48:10.858Z,18.4
2016-05-29T00:48:20.874Z,18.3
2016-05-29T00:48:30.702Z,18.4
2016-05-29T00:48:40.858Z,18.3
2016-05-29T00:48:50.861Z,18.3
2016-05-29T00:49:00.877Z,18.3
2016-05-29T00:49:10.877Z,18.3
2016-05-29T00:49:20.736Z,18.3
2016-05-29T00:49:30.877Z,18.3
2016-05-29T00:49:40.877Z,18.3
2016-05-29T00:49:50.880Z,18.3
2016-05-29T00:50:00.880Z,18.3
2016-05-29T00:50:11.020Z,18.3
2016-05-29T00:50:20.739Z,18.4
2016-05-29T00:50:30.895Z,18.3
2016-05-29T00:50:41.177Z,18.4
2016-05-29T00:50:50.772Z,18.3
2016-05-29T00:51:01.085Z,18.3
2016-05-29T00:51:10.757Z,18.3
2016-05-29T00:51:20.757Z,18.3
2016-05-29T00:51:30.913Z,18.3
2016-05-29T00:51:40.913Z,18.4
2016-05-29T00:51:50.917Z,18.3
2016-05-29T00:52:00.917Z,18.3
2016-05-29T00:52:10.917Z,18.3
2016-05-29T00:52:20.917Z,18.4
2016-05-29T00:52:30.933Z,18.3
2016-05-29T00:52:40.933Z,18.4
2016-05-29T00:52:50.935Z,18.4
2016-05-29T00:53:00.935Z,18.3
2016-05-29T00:53:10.935Z,18.4
2016-05-29T00:53:20.794Z,18.3
2016-05-29T00:53:30.935Z,18.3
2016-05-29T00:53:40.794Z,18.4
2016-05-29T00:53:50.953Z,18.4
2016-05-29T00:54:00.938Z,18.4
2016-05-29T00:54:10.953Z,18.3
2016-05-29T00:54:20.953Z,18.3
2016-05-29T00:54:30.797Z,18.4
2016-05-29T00:54:40.813Z,18.4
2016-05-29T00:54:50.955Z,18.4
2016-05-29T00:55:00.971Z,18.4
2016-05-29T00:55:10.815Z,18.3
2016-05-29T00:55:20.971Z,18.4
2016-05-29T00:55:30.971Z,18.4
2016-05-29T00:55:40.971Z,18.4
2016-05-29T00:55:50.974Z,18.4
2016-05-29T00:56:00.833Z,18.4
2016-05-29T00:56:10.974Z,18.4
2016-05-29T00:56:20.974Z,18.4
2016-05-29T00:56:30.989Z,18.4
2016-05-29T00:56:40.849Z,18.4
2016-05-29T00:56:50.991Z,18.4
2016-05-29T00:57:00.991Z,18.4
2016-05-29T00:57:10.851Z,18.4
2016-05-29T00:57:21.007Z,18.5
2016-05-29T00:57:30.991Z,18.4
2016-05-29T00:57:40.991Z,18.4
2016-05-29T00:57:51.011Z,18.5
2016-05-29T00:58:01.011Z,18.4
2016-05-29T00:58:11.027Z,18.4
2016-05-29T00:58:21.011Z,18.5
2016-05-29T00:58:31.011Z,18.5
2016-05-29T00:58:41.027Z,18.5
2016-05-29T00:58:51.044Z,18.5
2016-05-29T00:59:01.029Z,18.5
2016-05-29T00:59:11.029Z,18.5
2016-05-29T00:59:21.029Z,18.5
2016-05-29T00:59:31.044Z,18.5
2016-05-29T00:59:41.044Z,18.5
2016-05-29T00:59:51.046Z,18.4
2016-05-29T01:00:01.062Z,18.5
2016-05-29T01:00:11.046Z,18.5
2016-05-29T01:00:21.062Z,18.5
2016-05-29T01:00:31.062Z,18.5
2016-05-29T01:00:41.062Z,18.5
2016-05-29T01:00:51.050Z,18.5
2016-05-29T01:01:01.050Z,18.5
2016-05-29T01:01:11.050Z,18.5
2016-05-29T01:01:21.082Z,18.5
2016-05-29T01:01:31.066Z,18.5
2016-05-29T01:01:41.066Z,18.5
2016-05-29T01:01:51.084Z,18.5
2016-05-29T01:02:01.068Z,18.5
2016-05-29T01:02:11.084Z,18.5
2016-05-29T01:02:21.084Z,18.5
2016-05-29T01:02:31.084Z,18.4
2016-05-29T01:02:41.084Z,18.5
2016-05-29T01:02:51.102Z,18.4
2016-05-29T01:03:01.087Z,18.5
2016-05-29T01:03:11.102Z,18.5
2016-05-29T01:03:21.087Z,18.4
2016-05-29T01:03:31.102Z,18.5
2016-05-29T01:03:41.118Z,18.4
2016-05-29T01:03:51.104Z,18.4
2016-05-29T01:04:01.104Z,18.4
2016-05-29T01:04:11.104Z,18.4
2016-05-29T01:04:20.964Z,18.4
2016-05-29T01:04:31.120Z,18.5
2016-05-29T01:04:41.104Z,18.4
2016-05-29T01:04:51.123Z,18.5
2016-05-29T01:05:01.123Z,18.4
2016-05-29T01:05:11.138Z,18.5
2016-05-29T01:05:22.060Z,18.5
2016-05-29T01:05:30.982Z,18.4
2016-05-29T01:05:41.123Z,18.4
2016-05-29T01:05:51.157Z,18.4
2016-05-29T01:06:01.141Z,18.4
2016-05-29T01:06:11.001Z,18.5
2016-05-29T01:06:21.157Z,18.5
2016-05-29T01:06:31.141Z,18.5
2016-05-29T01:06:41.141Z,18.4
2016-05-29T01:06:51.160Z,18.5
2016-05-29T01:07:01.004Z,18.4
2016-05-29T01:07:11.160Z,18.4
2016-05-29T01:07:21.160Z,18.4
2016-05-29T01:07:31.160Z,18.5
2016-05-29T01:07:41.160Z,18.4
2016-05-29T01:07:51.162Z,18.5
2016-05-29T01:08:01.162Z,18.4
2016-05-29T01:08:11.021Z,18.5
2016-05-29T01:08:21.178Z,18.4
2016-05-29T01:08:31.178Z,18.5
2016-05-29T01:08:41.178Z,18.4
2016-05-29T01:08:51.040Z,18.4
2016-05-29T01:09:01.181Z,18.4
2016-05-29T01:09:11.196Z,18.4
2016-05-29T01:09:21.196Z,18.4
2016-05-29T01:09:31.196Z,18.4
2016-05-29T01:09:41.212Z,18.4
2016-05-29T01:09:51.214Z,18.4
2016-05-29T01:10:01.214Z,18.4
2016-05-29T01:10:11.198Z,18.3
2016-05-29T01:10:21.198Z,18.4
2016-05-29T01:10:31.198Z,18.4
2016-05-29T01:10:41.214Z,18.4
2016-05-29T01:10:51.233Z,18.3
2016-05-29T01:11:01.217Z,18.3
2016-05-29T01:11:11.217Z,18.4
2016-05-29T01:11:21.076Z,18.3
2016-05-29T01:11:31.217Z,18.4
2016-05-29T01:11:41.233Z,18.4
2016-05-29T01:11:51.236Z,18.3
2016-05-29T01:12:01.267Z,18.3
2016-05-29T01:12:11.236Z,18.3
2016-05-29T01:12:21.251Z,18.3
2016-05-29T01:12:31.236Z,18.2
2016-05-29T01:12:41.236Z,18.2
2016-05-29T01:12:51.253Z,18.2
2016-05-29T01:13:01.253Z,18.2
2016-05-29T01:13:11.253Z,18.1
2016-05-29T01:13:21.253Z,18.2
2016-05-29T01:13:31.113Z,18.2
2016-05-29T01:13:41.253Z,18.1
2016-05-29T01:13:51.256Z,18.1
2016-05-29T01:14:01.272Z,18.2
2016-05-29T01:14:11.272Z,18.1
2016-05-29T01:14:21.131Z,18.2
2016-05-29T01:14:31.272Z,18.2
2016-05-29T01:14:41.287Z,18.2
2016-05-29T01:14:51.275Z,18.1
2016-05-29T01:15:01.275Z,18.1
2016-05-29T01:15:11.290Z,18.1
2016-05-29T01:15:21.290Z,18
2016-05-29T01:15:31.290Z,18
2016-05-29T01:15:41.290Z,18
2016-05-29T01:15:51.293Z,18.1
2016-05-29T01:16:01.309Z,18
2016-05-29T01:16:11.293Z,18
2016-05-29T01:16:21.309Z,18
2016-05-29T01:16:31.309Z,18
2016-05-29T01:16:41.309Z,18
2016-05-29T01:16:51.311Z,18.1
2016-05-29T01:17:01.311Z,18
2016-05-29T01:17:11.311Z,17.9
2016-05-29T01:17:21.170Z,17.9
2016-05-29T01:17:31.327Z,17.9
2016-05-29T01:17:41.327Z,17.9
2016-05-29T01:17:51.330Z,18
2016-05-29T01:18:01.189Z,17.9
2016-05-29T01:18:11.330Z,17.9
2016-05-29T01:18:21.330Z,17.9
2016-05-29T01:18:31.330Z,17.9
2016-05-29T01:18:41.361Z,17.8
2016-05-29T01:18:51.348Z,17.9
2016-05-29T01:19:01.348Z,17.9
2016-05-29T01:19:11.192Z,17.9
2016-05-29T01:19:21.364Z,17.9
2016-05-29T01:19:31.348Z,17.9
2016-05-29T01:19:41.208Z,17.9
2016-05-29T01:19:51.350Z,17.9
2016-05-29T01:20:01.366Z,17.9
2016-05-29T01:20:11.382Z,17.9
2016-05-29T01:20:21.241Z,17.9
2016-05-29T01:20:31.366Z,17.8
2016-05-29T01:20:41.225Z,17.8
2016-05-29T01:20:51.244Z,17.9
2016-05-29T01:21:01.385Z,17.8
2016-05-29T01:21:11.385Z,17.8
2016-05-29T01:21:21.385Z,17.8
2016-05-29T01:21:31.385Z,17.9
2016-05-29T01:21:41.385Z,17.8
2016-05-29T01:21:51.403Z,17.8
2016-05-29T01:22:01.403Z,17.8
2016-05-29T01:22:11.403Z,17.8
2016-05-29T01:22:21.403Z,17.7
2016-05-29T01:22:31.403Z,17.7
2016-05-29T01:22:41.403Z,17.7
2016-05-29T01:22:51.405Z,17.7
2016-05-29T01:23:01.405Z,17.7
2016-05-29T01:23:11.405Z,17.7
2016-05-29T01:23:21.421Z,17.7
2016-05-29T01:23:31.421Z,17.7
2016-05-29T01:23:41.421Z,17.7
2016-05-29T01:23:51.424Z,17.6
2016-05-29T01:24:01.424Z,17.7
2016-05-29T01:24:11.424Z,17.6
2016-05-29T01:24:21.439Z,17.7
2016-05-29T01:24:31.439Z,17.8
2016-05-29T01:24:41.283Z,17.8
2016-05-29T01:24:51.442Z,17.7
2016-05-29T01:25:01.442Z,17.6
2016-05-29T01:25:11.442Z,17.6
2016-05-29T01:25:21.442Z,17.6
2016-05-29T01:25:31.442Z,17.6
2016-05-29T01:25:41.442Z,17.6
2016-05-29T01:25:51.445Z,17.6
2016-05-29T01:26:01.445Z,17.6
2016-05-29T01:26:11.461Z,17.6
2016-05-29T01:26:21.461Z,17.5
2016-05-29T01:26:31.461Z,17.6
2016-05-29T01:26:41.461Z,17.6
2016-05-29T01:26:51.463Z,17.5
2016-05-29T01:27:01.463Z,17.5
2016-05-29T01:27:11.479Z,17.6
2016-05-29T01:27:21.479Z,17.5
2016-05-29T01:27:31.479Z,17.6
2016-05-29T01:27:41.479Z,17.6
2016-05-29T01:27:51.497Z,17.5
2016-05-29T01:28:01.482Z,17.5
2016-05-29T01:28:11.497Z,17.6
2016-05-29T01:28:21.341Z,17.6
2016-05-29T01:28:31.497Z,17.5
2016-05-29T01:28:41.341Z,17.6
2016-05-29T01:28:51.485Z,17.5
2016-05-29T01:29:01.500Z,17.6
2016-05-29T01:29:11.344Z,17.6
2016-05-29T01:29:21.500Z,17.6
2016-05-29T01:29:31.360Z,17.5
2016-05-29T01:29:41.516Z,17.6
2016-05-29T01:29:51.519Z,17.5
2016-05-29T01:30:01.519Z,17.5
2016-05-29T01:30:11.519Z,17.5
2016-05-29T01:30:21.519Z,17.6
2016-05-29T01:30:31.519Z,17.5
2016-05-29T01:30:41.519Z,17.5
2016-05-29T01:30:51.537Z,17.6
2016-05-29T01:31:01.537Z,17.4
2016-05-29T01:31:11.537Z,17.6
2016-05-29T01:31:21.537Z,17.5
2016-05-29T01:31:31.537Z,17.5
2016-05-29T01:31:41.396Z,17.5
2016-05-29T01:31:51.540Z,17.5
2016-05-29T01:32:01.555Z,17.5
2016-05-29T01:32:11.555Z,17.5
2016-05-29T01:32:21.555Z,17.4
2016-05-29T01:32:31.555Z,17.5
2016-05-29T01:32:41.555Z,17.4
2016-05-29T01:32:51.558Z,17.4
2016-05-29T01:33:01.558Z,17.5
2016-05-29T01:33:11.574Z,17.5
2016-05-29T01:33:21.418Z,17.4
2016-05-29T01:33:31.574Z,17.5
2016-05-29T01:33:41.574Z,17.4
2016-05-29T01:33:51.420Z,17.5
2016-05-29T01:34:01.576Z,17.5
2016-05-29T01:34:11.576Z,17.5
2016-05-29T01:34:21.576Z,17.5
2016-05-29T01:34:31.591Z,17.4
2016-05-29T01:34:41.591Z,17.5
2016-05-29T01:34:51.594Z,17.4
2016-05-29T01:35:01.594Z,17.4
2016-05-29T01:35:11.813Z,17.5
2016-05-29T01:35:21.438Z,17.4
2016-05-29T01:35:32.329Z,17.5
2016-05-29T01:35:41.610Z,17.5
2016-05-29T01:35:51.691Z,17.4
2016-05-29T01:36:01.613Z,17.5
2016-05-29T01:36:11.832Z,17.5
2016-05-29T01:36:21.457Z,17.5
2016-05-29T01:36:31.457Z,17.5
2016-05-29T01:36:41.613Z,17.5
2016-05-29T01:36:51.615Z,17.5
2016-05-29T01:37:01.615Z,17.4
2016-05-29T01:37:11.474Z,17.4
2016-05-29T01:37:21.631Z,17.5
2016-05-29T01:37:31.474Z,17.4
2016-05-29T01:37:41.631Z,17.4
2016-05-29T01:37:51.634Z,17.4
2016-05-29T01:38:01.634Z,17.4
2016-05-29T01:38:11.634Z,17.4
2016-05-29T01:38:21.634Z,17.5
2016-05-29T01:38:31.493Z,17.4
2016-05-29T01:38:41.649Z,17.5
2016-05-29T01:38:51.652Z,17.4
2016-05-29T01:39:01.668Z,17.4
2016-05-29T01:39:11.652Z,17.4
2016-05-29T01:39:21.652Z,17.5
2016-05-29T01:39:31.668Z,17.4
2016-05-29T01:39:41.512Z,17.4
2016-05-29T01:39:51.670Z,17.4
2016-05-29T01:40:01.670Z,17.4
2016-05-29T01:40:11.670Z,17.4
2016-05-29T01:40:41.529Z,17.5
2016-05-29T01:40:51.689Z,17.5
2016-05-29T01:41:01.689Z,17.5
2016-05-29T01:41:11.689Z,17.5
2016-05-29T01:42:51.709Z,17.5
2016-05-29T01:43:01.725Z,17.5
2016-05-29T01:43:11.709Z,17.6
2016-05-29T01:43:21.709Z,17.5
2016-05-29T01:43:31.725Z,17.5
2016-05-29T01:43:41.725Z,17.5
2016-05-29T01:43:51.743Z,17.5
2016-05-29T01:44:01.728Z,17.5
2016-05-29T01:44:11.728Z,17.6
2016-05-29T01:44:21.728Z,17.5
2016-05-29T01:44:31.587Z,17.5
2016-05-29T01:44:41.743Z,17.5
2016-05-29T01:44:51.590Z,17.6
2016-05-29T01:45:01.746Z,17.6
2016-05-29T01:45:11.746Z,17.5
2016-05-29T01:45:21.746Z,17.6
2016-05-29T01:45:31.746Z,17.6
2016-05-29T01:46:11.765Z,17.6
2016-05-29T01:46:21.781Z,17.6
2016-05-29T01:46:31.765Z,17.6
2016-05-29T01:46:41.765Z,17.5
2016-05-29T01:46:51.767Z,17.5
2016-05-29T01:47:01.767Z,17.6
2016-05-29T01:47:11.626Z,17.6
2016-05-29T01:47:21.767Z,17.5
2016-05-29T01:47:31.767Z,17.5
2016-05-29T01:47:41.783Z,17.5
2016-05-29T01:47:51.786Z,17.5
2016-05-29T01:48:01.629Z,17.6
2016-05-29T01:48:11.629Z,17.5
2016-05-29T01:48:21.786Z,17.6
2016-05-29T01:48:31.786Z,17.5
2016-05-29T01:48:41.801Z,17.5
2016-05-29T01:48:51.803Z,17.6
2016-05-29T01:49:01.803Z,17.5
2016-05-29T01:49:11.803Z,17.5
2016-05-29T01:49:21.819Z,17.6
2016-05-29T01:49:31.803Z,17.6
2016-05-29T01:49:41.803Z,17.6
2016-05-29T01:49:51.822Z,17.6
2016-05-29T01:50:01.822Z,17.5
2016-05-29T01:50:12.134Z,17.6
2016-05-29T01:50:21.822Z,17.6
2016-05-29T01:51:31.841Z,17.6
2016-05-29T01:51:41.841Z,17.6
2016-05-29T01:51:51.843Z,17.5
2016-05-29T01:52:01.843Z,17.5
2016-05-29T01:52:11.843Z,17.5
2016-05-29T01:52:21.843Z,17.5
2016-05-29T01:52:31.858Z,17.5
2016-05-29T01:52:41.858Z,17.6
2016-05-29T01:52:51.861Z,17.6
2016-05-29T01:53:01.861Z,17.6
2016-05-29T01:53:11.861Z,17.5
2016-05-29T01:53:31.861Z,17.6
2016-05-29T01:53:51.880Z,17.6
2016-05-29T01:54:01.880Z,17.6
2016-05-29T01:54:11.880Z,17.5
2016-05-29T01:54:21.880Z,17.5
2016-05-29T01:54:31.880Z,17.4
2016-05-29T01:54:41.880Z,17.4
2016-05-29T01:54:51.882Z,17.4
2016-05-29T01:55:01.882Z,17.4
2016-05-29T01:55:11.897Z,17.4
2016-05-29T01:55:21.897Z,17.5
2016-05-29T01:55:31.913Z,17.4
2016-05-29T01:55:41.757Z,17.3
2016-05-29T01:55:51.900Z,17.4
2016-05-29T01:56:01.760Z,17.5
2016-05-29T01:56:11.760Z,17.4
2016-05-29T01:56:21.916Z,17.5
2016-05-29T01:56:31.900Z,17.5
2016-05-29T01:56:41.916Z,17.4
2016-05-29T01:56:51.919Z,17.4
2016-05-29T01:57:01.919Z,17.5
2016-05-29T01:57:11.919Z,17.5
2016-05-29T01:57:21.919Z,17.5
2016-05-29T01:57:31.935Z,17.5
2016-05-29T01:57:41.935Z,17.5
2016-05-29T01:57:51.937Z,17.4
2016-05-29T01:58:01.921Z,17.4
2016-05-29T01:58:11.937Z,17.5
2016-05-29T01:58:21.937Z,17.4
2016-05-29T01:58:31.937Z,17.5
2016-05-29T01:58:41.937Z,17.5
2016-05-29T01:58:51.956Z,17.5
2016-05-29T01:59:01.956Z,17.5
2016-05-29T01:59:11.956Z,17.5
2016-05-29T01:59:21.956Z,17.5
2016-05-29T01:59:31.956Z,17.6
2016-05-29T01:59:41.956Z,17.5
2016-05-29T01:59:51.958Z,17.5
2016-05-29T02:00:01.818Z,17.5
2016-05-29T02:00:11.958Z,17.5
2016-05-29T02:00:21.818Z,17.5
2016-05-29T02:00:31.990Z,17.5
2016-05-29T02:00:41.974Z,17.5
2016-05-29T02:00:51.977Z,17.5
2016-05-29T02:01:01.977Z,17.4
2016-05-29T02:01:11.977Z,17.5
2016-05-29T02:01:21.977Z,17.4
2016-05-29T02:01:31.993Z,17.5
